createdAt,value
2017-10-20T00:01:22.624Z,100912.83
2017-10-20T00:03:50.232Z,100909.97
2017-10-20T00:06:18.161Z,100909.59
2017-10-20T00:08:46.034Z,100903.75
2017-10-20T00:11:13.621Z,100906.77
2017-10-20T00:13:41.238Z,100900.66
2017-10-20T00:16:08.818Z,100907.86
2017-10-20T00:18:36.440Z,100907.72
2017-10-20T00:21:04.061Z,100900.75
2017-10-20T00:23:31.650Z,100902.09
2017-10-20T00:25:59.370Z,100907.03
2017-10-20T00:28:26.966Z,100907.67
2017-10-20T00:30:54.597Z,100911.05
2017-10-20T00:33:22.462Z,100915.08
2017-10-20T00:35:50.057Z,100905.59
2017-10-20T00:38:17.666Z,100911.41
2017-10-20T00:40:45.259Z,100905.22
2017-10-20T00:43:12.877Z,100913.74
2017-10-20T00:45:40.457Z,100907.98
2017-10-20T00:48:08.341Z,100909.55
2017-10-20T00:50:35.969Z,100908.16
2017-10-20T00:53:03.554Z,100909.98
2017-10-20T00:55:31.429Z,100909.56
2017-10-20T00:57:59.032Z,100908.34
2017-10-20T01:00:26.653Z,100905.45
2017-10-20T01:02:54.263Z,100908.55
2017-10-20T01:05:21.845Z,100900.70
2017-10-20T01:07:49.473Z,100907.30
2017-10-20T01:10:17.069Z,100910.34
2017-10-20T01:12:44.662Z,100906.91
2017-10-20T01:15:12.280Z,100905.10
2017-10-20T01:17:39.924Z,100913.64
2017-10-20T01:20:07.538Z,100906.20
2017-10-20T01:22:35.127Z,100905.79
2017-10-20T01:25:02.708Z,100900.65
2017-10-20T01:27:30.637Z,100901.69
2017-10-20T01:29:58.233Z,100898.68
2017-10-20T01:32:25.891Z,100902.91
2017-10-20T01:34:53.479Z,100897.14
2017-10-20T01:37:21.105Z,100903.09
2017-10-20T01:39:48.721Z,100906.92
2017-10-20T01:42:16.305Z,100892.49
2017-10-20T01:44:43.933Z,100895.17
2017-10-20T01:47:11.512Z,100891.98
2017-10-20T01:49:39.104Z,100891.73
2017-10-20T01:52:06.731Z,100890.98
2017-10-20T01:54:34.313Z,100894.27
2017-10-20T01:57:01.943Z,100888.80
2017-10-20T01:59:29.532Z,100900.03
2017-10-20T02:01:57.186Z,100902.20
2017-10-20T02:04:24.812Z,100900.70
2017-10-20T02:06:52.405Z,100906.40
2017-10-20T02:09:20.299Z,100903.91
2017-10-20T02:11:47.885Z,100900.39
2017-10-20T02:14:15.468Z,100896.43
2017-10-20T02:16:43.085Z,100895.27
2017-10-20T02:19:10.668Z,100904.50
2017-10-20T02:21:38.300Z,100901.91
2017-10-20T02:24:05.894Z,100897.28
2017-10-20T02:26:33.497Z,100898.30
2017-10-20T02:29:01.397Z,100894.87
2017-10-20T02:31:28.979Z,100896.53
2017-10-20T02:33:56.641Z,100899.05
2017-10-20T02:36:24.249Z,100896.08
2017-10-20T02:38:52.149Z,100890.36
2017-10-20T02:41:19.776Z,100892.20
2017-10-20T02:43:47.682Z,100892.30
2017-10-20T02:46:15.313Z,100890.94
2017-10-20T02:48:42.921Z,100895.40
2017-10-20T02:51:10.519Z,100897.99
2017-10-20T02:53:38.447Z,100893.05
2017-10-20T02:56:06.034Z,100894.42
2017-10-20T02:58:33.666Z,100892.46
2017-10-20T03:01:01.552Z,100892.22
2017-10-20T03:03:29.144Z,100884.14
2017-10-20T03:05:56.752Z,100883.72
2017-10-20T03:08:24.350Z,100873.34
2017-10-20T03:10:51.985Z,100880.03
2017-10-20T03:13:19.569Z,100878.91
2017-10-20T03:15:47.148Z,100880.13
2017-10-20T03:18:14.807Z,100883.78
2017-10-20T03:20:42.459Z,100888.48
2017-10-20T03:23:10.084Z,100895.26
2017-10-20T03:25:37.694Z,100891.13
2017-10-20T03:28:05.281Z,100891.16
2017-10-20T03:30:32.897Z,100890.65
2017-10-20T03:33:00.569Z,100884.20
2017-10-20T03:35:28.188Z,100885.22
2017-10-20T03:37:55.778Z,100884.63
2017-10-20T03:40:23.730Z,100881.30
2017-10-20T03:42:51.349Z,100881.70
2017-10-20T03:45:18.937Z,100889.91
2017-10-20T03:47:46.920Z,100893.42
2017-10-20T03:50:14.561Z,100887.66
2017-10-20T03:52:42.147Z,100884.47
2017-10-20T03:55:09.814Z,100880.28
2017-10-20T03:57:37.405Z,100877.76
2017-10-20T04:00:05.265Z,100873.27
2017-10-20T04:02:32.849Z,100878.70
2017-10-20T04:05:00.446Z,100878.17
2017-10-20T04:07:28.072Z,100878.11
2017-10-20T04:09:55.995Z,100883.70
2017-10-20T04:12:23.616Z,100876.59
2017-10-20T04:14:51.211Z,100882.72
2017-10-20T04:17:18.796Z,100884.47
2017-10-20T04:19:46.746Z,100884.86
2017-10-20T04:22:14.339Z,100879.00
2017-10-20T04:24:41.969Z,100877.02
2017-10-20T04:27:09.566Z,100878.27
2017-10-20T04:29:37.156Z,100880.55
2017-10-20T04:32:04.816Z,100883.64
2017-10-20T04:34:32.401Z,100888.63
2017-10-20T04:37:00.493Z,100897.33
2017-10-20T04:39:28.365Z,100892.95
2017-10-20T04:41:55.960Z,100887.05
2017-10-20T04:44:23.600Z,100884.05
2017-10-20T04:46:51.188Z,100889.48
2017-10-20T04:49:18.817Z,100896.67
2017-10-20T04:51:46.409Z,100888.47
2017-10-20T04:54:14.008Z,100889.63
2017-10-20T04:56:41.684Z,100882.53
2017-10-20T04:59:09.562Z,100878.38
2017-10-20T05:01:37.195Z,100880.42
2017-10-20T05:04:04.789Z,100880.93
2017-10-20T05:06:32.372Z,100874.25
2017-10-20T05:08:59.986Z,100868.66
2017-10-20T05:11:27.578Z,100869.22
2017-10-20T05:13:55.206Z,100874.19
2017-10-20T05:16:22.795Z,100865.66
2017-10-20T05:18:50.373Z,100868.52
2017-10-20T05:21:18.380Z,100866.76
2017-10-20T05:23:45.978Z,100871.75
2017-10-20T05:26:13.600Z,100861.23
2017-10-20T05:28:41.184Z,100858.80
2017-10-20T05:31:08.824Z,100858.86
2017-10-20T05:33:36.442Z,100855.62
2017-10-20T05:36:04.029Z,100856.48
2017-10-20T05:38:31.663Z,100861.82
2017-10-20T05:40:59.244Z,100864.08
2017-10-20T05:43:26.821Z,100864.32
2017-10-20T05:45:54.756Z,100863.55
2017-10-20T05:48:22.338Z,100865.81
2017-10-20T05:50:49.989Z,100859.12
2017-10-20T05:53:17.582Z,100866.22
2017-10-20T05:55:46.019Z,100874.06
2017-10-20T05:58:13.637Z,100861.70
2017-10-20T06:00:41.216Z,100872.16
2017-10-20T06:03:08.897Z,100875.40
2017-10-20T06:05:36.545Z,100885.80
2017-10-20T06:08:04.133Z,100868.75
2017-10-20T06:10:31.767Z,100873.02
2017-10-20T06:12:59.430Z,100871.59
2017-10-20T06:15:27.058Z,100859.36
2017-10-20T06:17:54.638Z,100861.62
2017-10-20T06:20:22.285Z,100869.08
2017-10-20T06:22:49.902Z,100871.16
2017-10-20T06:25:17.527Z,100883.28
2017-10-20T06:27:45.155Z,100890.38
2017-10-20T06:30:12.731Z,100894.16
2017-10-20T06:32:40.340Z,100891.03
2017-10-20T06:35:08.016Z,100887.30
2017-10-20T06:37:35.611Z,100892.38
2017-10-20T06:40:03.255Z,100897.81
2017-10-20T06:42:30.842Z,100900.19
2017-10-20T06:44:58.439Z,100891.58
2017-10-20T06:47:26.065Z,100895.91
2017-10-20T06:49:53.648Z,100887.71
2017-10-20T06:52:21.257Z,100894.05
2017-10-20T06:54:48.888Z,100890.14
2017-10-20T06:57:17.346Z,100897.67
2017-10-20T07:02:18.764Z,100903.34
2017-10-20T07:04:46.401Z,100905.36
2017-10-20T07:07:14.103Z,100900.61
2017-10-20T07:09:41.732Z,100900.16
2017-10-20T07:12:09.324Z,100890.46
2017-10-20T07:14:36.944Z,100884.66
2017-10-20T07:17:04.563Z,100889.62
2017-10-20T07:19:40.905Z,100892.02
2017-10-20T07:22:08.581Z,100896.45
2017-10-20T07:24:36.162Z,100898.53
2017-10-20T07:27:03.812Z,100900.97
2017-10-20T07:29:31.400Z,100894.87
2017-10-20T07:31:59.030Z,100899.89
2017-10-20T07:34:26.678Z,100899.77
2017-10-20T07:36:54.264Z,100902.84
2017-10-20T07:39:21.897Z,100894.64
2017-10-20T07:41:49.476Z,100888.69
2017-10-20T07:44:17.248Z,100889.28
2017-10-20T07:46:44.860Z,100897.61
2017-10-20T07:49:12.552Z,100906.38
2017-10-20T07:51:40.175Z,100902.47
2017-10-20T07:54:07.787Z,100912.91
2017-10-20T07:56:35.414Z,100915.52
2017-10-20T07:59:03.071Z,100927.71
2017-10-20T08:01:30.968Z,100930.05
2017-10-20T08:03:58.593Z,100932.63
2017-10-20T08:06:26.605Z,100930.48
2017-10-20T08:08:54.236Z,100917.36
2017-10-20T08:11:21.821Z,100914.70
2017-10-20T08:13:49.702Z,100923.22
2017-10-20T08:16:17.329Z,100921.22
2017-10-20T08:18:44.917Z,100917.84
2017-10-20T08:21:12.570Z,100920.39
2017-10-20T08:23:40.169Z,100912.72
2017-10-20T08:26:07.756Z,100921.65
2017-10-20T08:28:35.393Z,100925.49
2017-10-20T08:31:03.052Z,100926.23
2017-10-20T08:33:30.997Z,100927.53
2017-10-20T08:35:58.607Z,100923.48
2017-10-20T08:38:26.191Z,100915.76
2017-10-20T08:40:54.197Z,100911.80
2017-10-20T08:43:21.799Z,100901.42
2017-10-20T08:45:49.426Z,100897.39
2017-10-20T08:48:17.009Z,100895.14
2017-10-20T08:50:44.869Z,100885.09
2017-10-20T08:53:12.720Z,100886.90
2017-10-20T08:55:40.309Z,100891.48
2017-10-20T08:58:07.950Z,100889.42
2017-10-20T09:00:35.803Z,100888.20
2017-10-20T09:03:03.406Z,100884.47
2017-10-20T09:05:31.022Z,100892.97
2017-10-20T09:07:58.621Z,100891.71
2017-10-20T09:10:26.245Z,100890.17
2017-10-20T09:12:53.832Z,100890.49
2017-10-20T09:15:21.804Z,100890.92
2017-10-20T09:17:49.419Z,100880.98
2017-10-20T09:20:17.006Z,100882.44
2017-10-20T09:22:44.984Z,100886.67
2017-10-20T09:25:12.578Z,100894.63
2017-10-20T09:27:40.168Z,100891.14
2017-10-20T09:30:07.774Z,100889.62
2017-10-20T09:32:35.627Z,100892.19
2017-10-20T09:35:03.269Z,100897.27
2017-10-20T09:37:30.849Z,100890.19
2017-10-20T09:39:58.431Z,100890.61
2017-10-20T09:42:26.064Z,100883.23
2017-10-20T09:44:53.668Z,100877.13
2017-10-20T09:47:21.307Z,100880.93
2017-10-20T09:49:48.907Z,100879.44
2017-10-20T09:52:16.541Z,100885.14
2017-10-20T09:54:44.162Z,100883.25
2017-10-20T09:57:11.752Z,100890.19
2017-10-20T09:59:39.376Z,100889.59
2017-10-20T10:02:06.969Z,100887.59
2017-10-20T10:04:34.556Z,100892.41
2017-10-20T10:07:02.174Z,100885.70
2017-10-20T10:09:29.757Z,100879.34
2017-10-20T10:11:57.376Z,100882.83
2017-10-20T10:14:24.964Z,100883.97
2017-10-20T10:16:52.556Z,100883.55
2017-10-20T10:19:20.184Z,100873.17
2017-10-20T10:21:49.843Z,100874.53
2017-10-20T10:24:17.660Z,100873.27
2017-10-20T10:26:45.288Z,100862.94
2017-10-20T10:29:12.885Z,100873.58
2017-10-20T10:31:40.493Z,100863.50
2017-10-20T10:34:08.076Z,100864.75
2017-10-20T10:36:35.713Z,100861.19
2017-10-20T10:39:03.330Z,100852.59
2017-10-20T10:41:30.927Z,100854.27
2017-10-20T10:43:58.883Z,100847.45
2017-10-20T10:46:26.474Z,100848.23
2017-10-20T10:48:54.393Z,100852.17
2017-10-20T10:51:21.982Z,100851.98
2017-10-20T10:53:49.572Z,100849.96
2017-10-20T10:56:17.502Z,100850.17
2017-10-20T10:58:45.102Z,100850.23
2017-10-20T11:01:12.840Z,100852.41
2017-10-20T11:03:40.462Z,100847.64
2017-10-20T11:06:19.853Z,100846.30
2017-10-20T11:08:59.266Z,100848.62
2017-10-20T11:11:38.688Z,100852.67
2017-10-20T11:14:06.282Z,100856.34
2017-10-20T11:16:33.868Z,100854.79
2017-10-20T11:19:01.476Z,100864.80
2017-10-20T11:21:29.094Z,100894.28
2017-10-20T11:23:56.718Z,100888.73
2017-10-20T11:26:24.584Z,100894.34
2017-10-20T11:28:52.181Z,100887.42
2017-10-20T11:31:19.805Z,100889.81
2017-10-20T11:33:47.390Z,100888.30
2017-10-20T11:36:15.052Z,100888.44
2017-10-20T11:38:42.640Z,100891.34
2017-10-20T11:41:10.361Z,100889.92
2017-10-20T11:43:37.972Z,100878.94
2017-10-20T11:46:05.632Z,100881.05
2017-10-20T11:48:33.554Z,100883.63
2017-10-20T11:51:01.149Z,100880.55
2017-10-20T11:53:28.742Z,100877.68
2017-10-20T11:55:56.365Z,100872.30
2017-10-20T11:58:23.954Z,100865.45
2017-10-20T12:00:51.870Z,100864.11
2017-10-20T12:03:19.448Z,100862.87
2017-10-20T12:05:47.055Z,100861.94
2017-10-20T12:08:14.675Z,100853.90
2017-10-20T12:10:42.285Z,100852.06
2017-10-20T12:13:09.901Z,100857.87
2017-10-20T12:15:37.496Z,100859.63
2017-10-20T12:18:05.089Z,100855.94
2017-10-20T12:20:32.771Z,100854.17
2017-10-20T12:23:00.433Z,100853.23
2017-10-20T12:25:28.072Z,100842.71
2017-10-20T12:27:55.656Z,100840.84
2017-10-20T12:30:23.240Z,100856.42
2017-10-20T12:32:50.863Z,100851.23
2017-10-20T12:35:18.453Z,100853.96
2017-10-20T12:37:46.106Z,100858.93
2017-10-20T12:40:13.745Z,100855.52
2017-10-20T12:42:41.339Z,100846.89
2017-10-20T12:45:08.964Z,100846.38
2017-10-20T12:47:36.557Z,100840.26
2017-10-20T12:50:04.228Z,100834.14
2017-10-20T12:52:31.825Z,100832.48
2017-10-20T12:54:59.417Z,100828.45
2017-10-20T12:57:27.049Z,100823.89
2017-10-20T12:59:54.640Z,100823.58
2017-10-20T13:02:22.271Z,100821.30
2017-10-20T13:04:49.905Z,100812.30
2017-10-20T13:07:17.493Z,100824.23
2017-10-20T13:09:45.113Z,100829.52
2017-10-20T13:12:12.972Z,100831.80
2017-10-20T13:14:40.624Z,100825.38
2017-10-20T13:17:08.217Z,100832.91
2017-10-20T13:19:35.819Z,100832.67
2017-10-20T13:22:03.439Z,100843.27
2017-10-20T13:24:31.036Z,100843.86
2017-10-20T13:26:58.664Z,100854.52
2017-10-20T13:29:26.273Z,100842.47
2017-10-20T13:31:53.868Z,100838.84
2017-10-20T13:34:21.496Z,100838.73
2017-10-20T13:36:50.012Z,100836.35
2017-10-20T13:39:17.985Z,100831.44
2017-10-20T13:41:45.568Z,100829.88
2017-10-20T13:44:13.205Z,100825.50
2017-10-20T13:46:40.840Z,100825.39
2017-10-20T13:49:08.436Z,100816.69
2017-10-20T13:51:36.099Z,100817.72
2017-10-20T13:54:03.708Z,100812.02
2017-10-20T13:56:31.315Z,100817.52
2017-10-20T13:58:58.929Z,100821.86
2017-10-20T14:01:26.521Z,100808.39
2017-10-20T14:03:54.136Z,100804.91
2017-10-20T14:06:21.765Z,100803.25
2017-10-20T14:08:49.400Z,100802.80
2017-10-20T14:11:17.646Z,100793.63
2017-10-20T14:13:45.281Z,100801.08
2017-10-20T14:16:12.885Z,100793.00
2017-10-20T14:18:40.542Z,100785.38
2017-10-20T14:21:08.151Z,100772.73
2017-10-20T14:23:35.739Z,100768.43
2017-10-20T14:26:03.687Z,100757.86
2017-10-20T14:28:31.296Z,100773.05
2017-10-20T14:30:58.933Z,100810.77
2017-10-20T14:33:26.537Z,100788.17
2017-10-20T14:35:54.161Z,100775.38
2017-10-20T14:38:21.773Z,100771.44
2017-10-20T14:40:49.373Z,100758.95
2017-10-20T14:43:17.014Z,100758.02
2017-10-20T14:45:44.618Z,100756.36
2017-10-20T14:48:12.207Z,100777.55
2017-10-20T14:50:39.841Z,100786.81
2017-10-20T14:53:07.496Z,100780.28
2017-10-20T14:55:35.143Z,100791.78
2017-10-20T14:58:02.993Z,100792.64
2017-10-20T15:00:30.581Z,100792.34
2017-10-20T15:02:58.199Z,100798.34
2017-10-20T15:05:25.784Z,100787.27
2017-10-20T15:07:53.403Z,100781.05
2017-10-20T15:10:21.013Z,100784.84
2017-10-20T15:12:48.712Z,100767.55
2017-10-20T15:15:16.333Z,100765.16
2017-10-20T15:17:43.924Z,100766.30
2017-10-20T15:20:11.553Z,100770.80
2017-10-20T15:22:39.137Z,100774.11
2017-10-20T15:25:06.725Z,100770.17
2017-10-20T15:27:34.339Z,100765.10
2017-10-20T15:30:01.924Z,100765.62
2017-10-20T15:32:29.553Z,100758.37
2017-10-20T15:34:57.141Z,100737.30
2017-10-20T15:37:24.725Z,100746.63
2017-10-20T15:39:52.450Z,100756.44
2017-10-20T15:42:20.045Z,100763.83
2017-10-20T15:44:47.664Z,100756.27
2017-10-20T15:47:15.257Z,100751.71
2017-10-20T15:49:42.842Z,100755.88
2017-10-20T15:52:10.469Z,100756.72
2017-10-20T15:54:38.083Z,100757.02
2017-10-20T15:57:05.714Z,100754.23
2017-10-20T15:59:33.364Z,100756.82
2017-10-20T16:02:01.212Z,100760.75
2017-10-20T16:04:28.826Z,100762.75
2017-10-20T16:06:56.899Z,100768.75
2017-10-20T16:09:24.569Z,100777.34
2017-10-20T16:11:52.477Z,100789.97
2017-10-20T16:14:20.073Z,100797.84
2017-10-20T16:16:47.730Z,100799.22
2017-10-20T16:19:15.325Z,100793.83
2017-10-20T16:21:42.953Z,100794.97
2017-10-20T16:24:10.591Z,100802.03
2017-10-20T16:26:38.221Z,100805.73
2017-10-20T16:29:05.849Z,100796.94
2017-10-20T16:31:33.462Z,100808.66
2017-10-20T16:34:01.095Z,100813.00
2017-10-20T16:36:28.676Z,100803.92
2017-10-20T16:38:56.292Z,100805.75
2017-10-20T16:41:23.929Z,100804.20
2017-10-20T16:43:51.533Z,100805.96
2017-10-20T16:46:19.464Z,100810.59
2017-10-20T16:48:47.386Z,100804.83
2017-10-20T16:51:15.288Z,100816.31
2017-10-20T16:53:43.158Z,100823.34
2017-10-20T16:56:10.745Z,100824.09
2017-10-20T16:58:38.386Z,100835.91
2017-10-20T17:01:05.972Z,100835.08
2017-10-20T17:03:33.555Z,100820.69
2017-10-20T17:06:01.181Z,100821.00
2017-10-20T17:08:29.032Z,100813.86
2017-10-20T17:10:56.652Z,100817.79
2017-10-20T17:13:24.274Z,100812.51
2017-10-20T17:15:52.131Z,100818.41
2017-10-20T17:18:19.773Z,100822.67
2017-10-20T17:20:47.405Z,100799.30
2017-10-20T17:23:15.317Z,100787.50
2017-10-20T17:25:42.900Z,100769.98
2017-10-20T17:28:10.849Z,100754.86
2017-10-20T17:30:38.716Z,100749.17
2017-10-20T17:33:06.383Z,100759.23
2017-10-20T17:35:34.012Z,100759.75
2017-10-20T17:38:01.911Z,100760.05
2017-10-20T17:40:29.505Z,100760.98
2017-10-20T17:42:57.117Z,100765.95
2017-10-20T17:45:25.001Z,100769.78
2017-10-20T17:47:52.976Z,100774.67
2017-10-20T17:50:20.570Z,100776.84
2017-10-20T17:52:48.401Z,100774.05
2017-10-20T17:55:16.016Z,100777.35
2017-10-20T17:57:43.608Z,100772.48
2017-10-20T18:00:11.234Z,100784.30
2017-10-20T18:02:38.852Z,100779.00
2017-10-20T18:05:06.716Z,100786.88
2017-10-20T18:07:34.341Z,100801.26
2017-10-20T18:10:02.248Z,100810.98
2017-10-20T18:12:29.869Z,100812.44
2017-10-20T18:14:57.474Z,100818.11
2017-10-20T18:17:25.058Z,100814.41
2017-10-20T18:19:52.666Z,100810.98
2017-10-20T18:22:20.253Z,100813.97
2017-10-20T18:24:47.884Z,100792.02
2017-10-20T18:27:15.469Z,100793.08
2017-10-20T18:29:43.054Z,100785.02
2017-10-20T18:32:11.022Z,100781.12
2017-10-20T18:34:38.603Z,100783.27
2017-10-20T18:37:06.229Z,100777.16
2017-10-20T18:39:33.845Z,100780.58
2017-10-20T18:42:01.445Z,100779.97
2017-10-20T18:44:29.430Z,100773.23
2017-10-20T18:46:57.024Z,100775.20
2017-10-20T18:49:24.648Z,100766.64
2017-10-20T18:51:52.521Z,100774.59
2017-10-20T18:54:20.120Z,100763.23
2017-10-20T18:56:48.058Z,100769.81
2017-10-20T18:59:15.924Z,100775.61
2017-10-20T19:01:43.787Z,100792.56
2017-10-20T19:04:11.391Z,100800.23
2017-10-20T19:06:38.991Z,100782.43
2017-10-20T19:09:06.614Z,100796.82
2017-10-20T19:11:34.227Z,100787.21
2017-10-20T19:14:02.102Z,100794.02
2017-10-20T19:16:29.970Z,100813.86
2017-10-20T19:18:57.611Z,100820.79
2017-10-20T19:21:25.229Z,100833.50
2017-10-20T19:23:52.849Z,100834.19
2017-10-20T19:26:20.473Z,100833.95
2017-10-20T19:28:48.065Z,100830.43
2017-10-20T19:31:15.890Z,100836.38
2017-10-20T19:33:43.507Z,100834.21
2017-10-20T19:36:11.095Z,100831.53
2017-10-20T19:38:38.716Z,100829.36
2017-10-20T19:41:06.318Z,100829.16
2017-10-20T19:43:33.905Z,100844.93
2017-10-20T19:46:01.578Z,100858.16
2017-10-20T19:48:29.489Z,100864.97
2017-10-20T19:50:57.122Z,100864.84
2017-10-20T19:53:25.132Z,100865.36
2017-10-20T19:55:52.728Z,100871.37
2017-10-20T19:58:20.341Z,100872.30
2017-10-20T20:00:48.745Z,100866.92
2017-10-20T20:03:16.697Z,100863.44
2017-10-20T20:05:44.290Z,100873.05
2017-10-20T20:08:11.874Z,100876.02
2017-10-20T20:10:39.487Z,100876.66
2017-10-20T20:13:07.085Z,100883.66
2017-10-20T20:15:34.708Z,100891.30
2017-10-20T20:18:02.304Z,100888.50
2017-10-20T20:20:30.241Z,100890.67
2017-10-20T20:22:57.866Z,100892.20
2017-10-20T20:25:25.464Z,100896.30
2017-10-20T20:27:53.102Z,100893.39
2017-10-20T20:30:21.610Z,100898.83
2017-10-20T20:32:50.975Z,100899.53
2017-10-20T20:35:18.614Z,100894.67
2017-10-20T20:37:46.236Z,100892.19
2017-10-20T20:40:13.818Z,100898.38
2017-10-20T20:42:41.467Z,100903.72
2017-10-20T20:45:09.057Z,100901.64
2017-10-20T20:47:36.821Z,100915.05
2017-10-20T20:50:04.444Z,100912.11
2017-10-20T20:52:32.313Z,100919.97
2017-10-20T20:55:00.288Z,100916.87
2017-10-20T20:57:27.866Z,100915.13
2017-10-20T20:59:55.453Z,100917.63
2017-10-20T21:02:23.085Z,100924.84
2017-10-20T21:04:50.675Z,100919.61
2017-10-20T21:07:18.320Z,100923.09
2017-10-20T21:09:46.265Z,100926.41
2017-10-20T21:12:13.892Z,100920.40
2017-10-20T21:14:41.516Z,100921.42
2017-10-20T21:17:09.093Z,100923.05
2017-10-20T21:19:36.913Z,100927.16
2017-10-20T21:22:04.778Z,100924.80
2017-10-20T21:24:32.365Z,100920.73
2017-10-20T21:26:59.978Z,100918.37
2017-10-20T21:29:27.566Z,100920.22
2017-10-20T21:31:55.198Z,100921.89
2017-10-20T21:34:22.802Z,100922.53
2017-10-20T21:36:50.386Z,100919.80
2017-10-20T21:39:18.018Z,100924.25
2017-10-20T21:41:45.597Z,100925.55
2017-10-20T21:44:13.218Z,100924.70
2017-10-20T21:46:41.049Z,100926.00
2017-10-20T21:49:08.636Z,100920.44
2017-10-20T21:51:36.277Z,100926.78
2017-10-20T21:54:03.868Z,100919.76
2017-10-20T21:56:32.254Z,100927.19
2017-10-20T21:59:00.137Z,100930.38
2017-10-20T22:01:27.718Z,100928.58
2017-10-20T22:03:55.339Z,100935.59
2017-10-20T22:06:22.921Z,100937.12
2017-10-20T22:08:50.724Z,100934.20
2017-10-20T22:11:18.319Z,100941.41
2017-10-20T22:13:45.905Z,100942.11
2017-10-20T22:16:13.511Z,100945.74
2017-10-20T22:18:41.445Z,100950.95
2017-10-20T22:21:09.058Z,100953.70
2017-10-20T22:23:36.646Z,100945.27
2017-10-20T22:26:04.272Z,100946.91
2017-10-20T22:28:32.193Z,100954.72
2017-10-20T22:30:59.800Z,100955.29
2017-10-20T22:33:27.450Z,100949.10
2017-10-20T22:35:55.037Z,100947.91
2017-10-20T22:38:22.661Z,100950.02
2017-10-20T22:40:50.964Z,100954.48
2017-10-20T22:43:18.562Z,100959.70
2017-10-20T22:45:46.192Z,100954.42
2017-10-20T22:48:13.785Z,100963.72
2017-10-20T22:50:41.415Z,100960.97
2017-10-20T22:53:09.349Z,100961.12
2017-10-20T22:55:36.958Z,100960.04
2017-10-20T22:58:04.586Z,100964.13
2017-10-20T23:00:32.207Z,100969.48
2017-10-20T23:02:59.850Z,100969.20
2017-10-20T23:05:27.447Z,100971.49
2017-10-20T23:07:55.313Z,100972.41
2017-10-20T23:10:22.929Z,100969.83
2017-10-20T23:12:50.514Z,100974.88
2017-10-20T23:15:18.156Z,100978.03
2017-10-20T23:17:45.753Z,100977.76
2017-10-20T23:20:13.349Z,100985.33
2017-10-20T23:22:40.961Z,100983.67
2017-10-20T23:25:08.540Z,100991.98
2017-10-20T23:27:36.520Z,100988.09
2017-10-20T23:30:04.113Z,100982.57
2017-10-20T23:32:31.696Z,100977.14
2017-10-20T23:34:59.304Z,100977.94
2017-10-20T23:37:26.890Z,100979.28
2017-10-20T23:39:54.529Z,100977.04
2017-10-20T23:42:22.114Z,100978.38
2017-10-20T23:44:49.705Z,100972.92
2017-10-20T23:47:17.352Z,100976.72
2017-10-20T23:49:44.941Z,100972.16
2017-10-20T23:52:12.558Z,100984.67
2017-10-20T23:54:40.143Z,100979.66
2017-10-20T23:57:07.733Z,100975.89
2017-10-20T23:59:35.339Z,100970.89
